Flight Track Log - Related Links

Times and Time Zones

All times are in EST time to prevent confusion due to time zone crossing. See the GTX653 flight status page for this flight to view local times or setup timezone preferences in your user account.

Time Position Orientation Groundspeed Altitude Reporting Facility
EST Latitude Longitude Course Direction KTS MPH feet Rate Location/Type
Fri 11:35:32 PM 32.9333 -96.7833 90° East 139 160 2,000  Level Dallas / Fort Worth TRACON
Fri 11:36:02 PM 32.9333 -96.7667 90° East 147 169 2,100 400 Climbing Dallas / Fort Worth TRACON
Fri 11:37:02 PM 32.9000 -96.7500 157° South 96 110 2,600 550 Climbing Dallas / Fort Worth TRACON
Fri 11:38:02 PM 32.8833 -96.7667 220° Southwest 107 123 3,200 650 Climbing Dallas / Fort Worth TRACON
Fri 11:39:02 PM 32.8500 -96.7667 180° South 103 119 3,900 650 Climbing Dallas / Fort Worth TRACON
Fri 11:40:02 PM 32.8167 -96.7833 203° Southwest 110 127 4,500 600 Climbing Dallas / Fort Worth TRACON
Fri 11:41:02 PM 32.7833 -96.8000 203° Southwest 120 138 5,100 600 Climbing Dallas / Fort Worth TRACON
Fri 11:42:02 PM 32.7500 -96.8000 180° South 125 144 5,700 450 Climbing Dallas / Fort Worth TRACON
Fri 11:43:02 PM 32.7167 -96.8167 203° Southwest 127 146 6,000 158 Climbing Dallas / Fort Worth TRACON
Fri 11:43:56 PM 32.6833 -96.8333 203° Southwest 147 169 6,000  Level Dallas / Fort Worth TRACON
Fri 11:45:08 PM 32.6333 -96.8500 196° South 151 174 6,000  Level Dallas / Fort Worth TRACON
Fri 11:46:14 PM 32.5833 -96.8500 180° South 153 176 6,000  Level Dallas / Fort Worth TRACON
Fri 11:47:08 PM 32.5500 -96.8667 203° Southwest 156 180 6,000  Level Dallas / Fort Worth TRACON
Fri 11:48:08 PM 32.5167 -96.8833 203° Southwest 154 177 6,000  Level Dallas / Fort Worth TRACON
Fri 11:48:56 PM 32.4833 -96.9000 203° Southwest 155 178 6,000  Level Dallas / Fort Worth TRACON
Fri 11:49:26 PM 32.4606 -96.9058 192° South 154 177 6,000  Level Fort Worth Center
Fri 11:50:27 PM 32.4153 -96.9206 195° South 156 180 6,000  Level Fort Worth Center
Fri 11:51:28 PM 32.3742 -96.9364 198° South 156 180 6,000  Level Fort Worth Center
Fri 11:52:29 PM 32.3328 -96.9500 196° South 155 178 6,000  Level Fort Worth Center
Fri 11:53:30 PM 32.2906 -96.9606 192° South 155 178 6,000  Level Fort Worth Center
Fri 11:54:30 PM 32.2481 -96.9764 197° South 155 178 6,000  Level Fort Worth Center
Fri 11:55:31 PM 32.2069 -96.9936 200° South 155 178 6,000 98 Level Fort Worth Center
Fri 11:56:32 PM 32.1650 -97.0083 197° South 155 178 6,200 49 Climbing Fort Worth Center
Fri 11:57:33 PM 32.1247 -97.0236 198° South 155 178 6,100 -49 Descending Fort Worth Center
Fri 11:58:34 PM 32.0836 -97.0406 199° South 155 178 6,100  Level Fort Worth Center
Fri 11:59:34 PM 32.0417 -97.0544 196° South 155 178 6,100  Level Fort Worth Center
Sat 12:00:35 AM 31.9983 -97.0614 188° South 155 178 6,100  Level Fort Worth Center
Sat 12:01:36 AM 31.9594 -97.0761 198° South 155 178 6,100  Level Fort Worth Center
Sat 12:02:37 AM 31.9156 -97.0872 192° South 156 180 6,100  Level Fort Worth Center
Sat 12:03:38 AM 31.8717 -97.1000 194° South 157 181 6,100  Level Fort Worth Center
Sat 12:04:38 AM 31.8222 -97.1153 195° South 158 182 6,100  Level Fort Worth Center
Sat 12:05:39 AM 31.7833 -97.1250 192° South 161 185 6,100  Level Fort Worth Center
Sat 12:06:40 AM 31.7392 -97.1397 196° South 161 185 6,100  Level Fort Worth Center
Sat 12:07:41 AM 31.6947 -97.1539 195° South 161 185 6,100  Level Fort Worth Center
Sat 12:08:42 AM 31.6431 -97.1697 195° South 161 185 6,100  Level Fort Worth Center
Sat 12:09:42 AM 31.5981 -97.1828 194° South 162 186 6,100  Level Fort Worth Center
Sat 12:10:43 AM 31.5542 -97.1989 197° South 162 186 6,100  Level Fort Worth Center
Sat 12:11:44 AM 31.5094 -97.2128 195° South 162 186 6,100  Level Fort Worth Center
Sat 12:12:44 AM 31.4650 -97.2244 193° South 163 188 6,100  Level Fort Worth Center
Sat 12:13:45 AM 31.4211 -97.2406 197° South 163 188 6,100  Level Fort Worth Center
Sat 12:14:44 AM 31.3778 -97.2536 194° South 163 188 6,100  Level Fort Worth Center
Sat 12:14:46 AM 31.3764 -97.2550 220° Southwest 163 188 6,100  Level Fort Worth Center
Sat 12:14:50 AM 31.3739 -97.2567 210° Southwest 163 188 6,100  Level Fort Worth Center
Sat 12:15:47 AM 31.3314 -97.2686 193° South 163 188 6,100  Level Fort Worth Center
Sat 12:15:51 AM 31.3269 -97.2697 192° South 165 190 6,100  Level Fort Worth Center
Sat 12:16:47 AM 31.2867 -97.2828 195° South 163 188 6,100  Level Fort Worth Center
Sat 12:16:51 AM 31.2844 -97.2842 208° Southwest 166 191 6,100  Level Fort Worth Center
Sat 12:17:52 AM 31.2375 -97.2972 193° South 165 190 6,100  Level Fort Worth Center
Sat 12:18:49 AM 31.1969 -97.3089 194° South 163 188 6,100  Level Fort Worth Center
Sat 12:18:58 AM 31.1886 -97.3103 188° South 163 188 6,100  Level Fort Worth Center
Sat 12:19:49 AM 31.1525 -97.3217 195° South 163 188 6,100  Level Fort Worth Center
Sat 12:19:59 AM 31.1461 -97.3250 204° Southwest 162 186 6,100  Level Fort Worth Center
Sat 12:20:50 AM 31.1094 -97.3369 196° South 163 188 6,100  Level Fort Worth Center
Sat 12:21:00 AM 31.0994 -97.3400 195° South 163 188 6,100  Level Fort Worth Center
Sat 12:21:51 AM 31.0650 -97.3511 195° South 163 188 6,100  Level Fort Worth Center
Sat 12:22:51 AM 31.0217 -97.3664 197° South 163 188 6,100  Level Fort Worth Center
Sat 12:23:52 AM 30.9781 -97.3814 196° South 163 188 6,100  Level Fort Worth Center
Sat 12:24:52 AM 30.9342 -97.3961 196° South 163 188 6,100  Level Fort Worth Center
Sat 12:25:53 AM 30.8917 -97.4122 198° South 163 188 6,100 -50 Level Fort Worth Center
Sat 12:26:53 AM 30.8489 -97.4281 198° South 163 188 6,000  Descending Fort Worth Center
Sat 12:27:54 AM 30.8044 -97.4406 194° South 163 188 6,100  Climbing Fort Worth Center
Sat 12:28:54 AM 30.7608 -97.4528 194° South 162 186 6,000 -446 Descending Fort Worth Center
Sat 12:29:55 AM 30.7136 -97.4672 195° South 165 190 5,200 -793 Descending Fort Worth Center
Sat 12:30:55 AM 30.6653 -97.4806 193° South 174 200 4,400 -793 Descending Fort Worth Center
Sat 12:31:56 AM 30.6189 -97.4936 194° South 174 200 3,600 -694 Descending Fort Worth Center
Sat 12:32:56 AM 30.5772 -97.5075 196° South 166 191 3,000 -600 Descending Fort Worth Center

Login

Don't have an account? Register now (free) for customized features, flight alerts, and more!